CPX782 Details

Departure: Incheon International Airport (RKSI)
Arrival: Noi Bai International Airport (VVNB)
Route: BOPTA1K BOPTA Z51 BEDES Y711 PONIK A593 PUD A599 JTN A599 PLT A599 GYA R474 LON R474 NOB


Current Weather Information
RKSI 212200Z 15007KT CAVOK 14/10 Q1006 NOSIG
VVNB 212200Z 05007KT 020V080 9999 BKN045 25/19 Q1010 NOSIG